createdAt,value
2022-10-18T00:00:48.858Z,39.13
2022-10-18T00:01:51.086Z,40.35
2022-10-18T00:02:53.145Z,37.15
2022-10-18T00:03:55.014Z,37.99
2022-10-18T00:04:56.982Z,35.55
2022-10-18T00:05:59.570Z,33.67
2022-10-18T00:07:01.668Z,32.19
2022-10-18T00:08:04.070Z,28.33
2022-10-18T00:09:06.607Z,31.14
2022-10-18T00:10:10.032Z,32.39
2022-10-18T00:11:12.144Z,31.36
2022-10-18T00:12:14.231Z,32.77
2022-10-18T00:13:16.906Z,33.87
2022-10-18T00:14:19.112Z,31.32
2022-10-18T00:15:20.997Z,32.45
2022-10-18T00:16:23.197Z,31.33
2022-10-18T00:17:25.073Z,31.42
2022-10-18T00:18:28.040Z,31.33
2022-10-18T00:19:29.955Z,32.05
2022-10-18T00:20:31.930Z,31.86
2022-10-18T00:21:34.316Z,31.28
2022-10-18T00:22:40.644Z,30.51
2022-10-18T00:23:43.730Z,31.41
2022-10-18T00:24:45.637Z,30.99
2022-10-18T00:25:47.686Z,31.72
2022-10-18T00:26:49.980Z,30.51
2022-10-18T00:27:51.855Z,27.35
2022-10-18T00:28:59.400Z,30.13
2022-10-18T00:30:01.882Z,31.89
2022-10-18T00:31:16.444Z,29.27
2022-10-18T00:32:18.616Z,30.52
2022-10-18T00:33:20.940Z,27.86
2022-10-18T00:34:22.850Z,30.17
2022-10-18T00:35:25.257Z,27.75
2022-10-18T00:36:29.988Z,28.84
2022-10-18T00:37:32.612Z,28.28
2022-10-18T00:38:35.184Z,28.25
2022-10-18T00:39:37.095Z,28.19
2022-10-18T00:40:39.092Z,26.93
2022-10-18T00:41:41.256Z,30.18
2022-10-18T00:42:43.206Z,30.45
2022-10-18T00:43:58.213Z,25.80
2022-10-18T00:45:19.235Z,29.97
2022-10-18T00:46:22.964Z,28.18
2022-10-18T00:47:25.868Z,22.93
2022-10-18T00:48:27.753Z,30.44
2022-10-18T00:49:36.681Z,25.61
2022-10-18T00:50:39.523Z,26.22
2022-10-18T00:51:48.236Z,22.20
2022-10-18T00:52:56.879Z,25.18
2022-10-18T00:53:59.439Z,24.38
2022-10-18T00:55:03.069Z,26.42
2022-10-18T00:56:05.769Z,25.76
2022-10-18T00:57:08.365Z,26.76
2022-10-18T00:58:13.573Z,24.10
2022-10-18T00:59:17.405Z,23.82
2022-10-18T01:00:20.058Z,24.72
2022-10-18T01:01:24.510Z,27.98
2022-10-18T01:02:25.946Z,28.16
2022-10-18T01:03:27.819Z,29.00
2022-10-18T01:04:29.930Z,32.46
2022-10-18T01:05:32.035Z,38.49
2022-10-18T01:06:54.781Z,33.55
2022-10-18T01:08:06.699Z,25.96
2022-10-18T01:09:15.418Z,31.15
2022-10-18T01:10:30.073Z,36.17
2022-10-18T01:13:20.928Z,35.83
2022-10-18T01:14:25.933Z,32.06
2022-10-18T01:15:31.418Z,32.25
2022-10-18T01:16:39.926Z,33.21
2022-10-18T01:17:57.307Z,31.48
2022-10-18T01:19:05.757Z,32.63
2022-10-18T01:20:14.612Z,28.98
2022-10-18T01:21:26.338Z,29.28
2022-10-18T01:22:37.626Z,27.98
2022-10-18T01:23:58.450Z,25.93
2022-10-18T01:25:32.769Z,25.16
2022-10-18T01:26:41.577Z,30.84
2022-10-18T01:27:59.404Z,27.59
2022-10-18T01:29:29.774Z,25.96
2022-10-18T01:30:35.754Z,29.63
2022-10-18T01:31:41.477Z,31.85
2022-10-18T01:32:55.999Z,28.66
2022-10-18T01:35:07.577Z,30.86
2022-10-18T01:36:16.909Z,31.81
2022-10-18T01:37:21.218Z,32.29
2022-10-18T01:38:25.310Z,32.66
2022-10-18T01:39:33.927Z,33.14
2022-10-18T01:40:37.702Z,31.74
2022-10-18T01:41:42.808Z,31.02
2022-10-18T01:42:47.772Z,27.63
2022-10-18T01:43:53.454Z,27.77
2022-10-18T01:44:56.331Z,33.67
2022-10-18T01:46:00.039Z,28.12
2022-10-18T01:47:04.179Z,22.28
2022-10-18T01:48:06.910Z,21.34
2022-10-18T01:49:08.957Z,19.84
2022-10-18T01:50:12.482Z,20.43
2022-10-18T01:51:16.660Z,18.92
2022-10-18T01:52:18.611Z,23.16
2022-10-18T01:54:43.580Z,16.51
2022-10-18T01:55:49.262Z,15.17
2022-10-18T01:56:58.115Z,17.52
2022-10-18T01:58:09.619Z,15.68
2022-10-18T01:59:40.789Z,17.48
2022-10-18T02:00:43.734Z,17.01
2022-10-18T02:02:04.282Z,18.55
2022-10-18T02:03:15.712Z,17.24
2022-10-18T02:05:46.150Z,17.96
2022-10-18T02:06:51.937Z,14.62
2022-10-18T02:08:12.064Z,15.14
2022-10-18T02:09:11.226Z,17.11
2022-10-18T02:10:27.116Z,21.46
2022-10-18T02:11:32.134Z,19.48
2022-10-18T02:12:37.336Z,18.28
2022-10-18T02:13:42.806Z,18.69
2022-10-18T02:14:46.671Z,18.11
2022-10-18T02:15:52.322Z,16.59
2022-10-18T02:16:58.206Z,17.06
2022-10-18T02:18:03.101Z,17.18
2022-10-18T02:19:11.849Z,17.59
2022-10-18T02:20:18.490Z,18.68
2022-10-18T02:21:21.858Z,18.02
2022-10-18T02:22:27.380Z,16.29
2022-10-18T02:23:31.365Z,17.45
2022-10-18T02:24:37.130Z,22.54
2022-10-18T02:25:39.073Z,21.26
2022-10-18T02:26:41.641Z,23.57
2022-10-18T02:27:44.043Z,20.51
2022-10-18T02:28:46.250Z,20.77
2022-10-18T02:29:49.101Z,19.22
2022-10-18T02:30:54.923Z,16.77
2022-10-18T02:32:09.621Z,23.37
2022-10-18T02:33:21.211Z,22.11
2022-10-18T02:34:27.037Z,21.22
2022-10-18T02:35:32.410Z,21.03
2022-10-18T02:36:38.389Z,27.27
2022-10-18T02:37:42.146Z,22.07
2022-10-18T02:38:46.063Z,22.58
2022-10-18T02:39:50.816Z,21.52
2022-10-18T02:40:53.216Z,21.86
2022-10-18T02:41:56.839Z,21.29
2022-10-18T02:42:59.020Z,24.25
2022-10-18T02:44:01.100Z,22.53
2022-10-18T02:45:05.149Z,22.16
2022-10-18T02:46:07.423Z,23.75
2022-10-18T02:47:10.745Z,22.96
2022-10-18T02:48:12.653Z,18.51
2022-10-18T02:49:15.150Z,22.27
2022-10-18T02:50:18.535Z,19.44
2022-10-18T02:51:20.405Z,20.89
2022-10-18T02:52:22.815Z,21.64
2022-10-18T02:53:24.804Z,21.53
2022-10-18T02:54:26.722Z,19.96
2022-10-18T02:56:31.342Z,20.06
2022-10-18T02:57:33.829Z,19.81
2022-10-18T02:58:36.034Z,17.37
2022-10-18T02:59:38.028Z,14.87
2022-10-18T03:00:40.119Z,20.71
2022-10-18T03:01:42.413Z,19.01
2022-10-18T03:02:44.488Z,14.96
2022-10-18T03:03:46.824Z,19.13
2022-10-18T03:04:49.019Z,11.50
2022-10-18T03:05:52.306Z,14.97
2022-10-18T03:06:54.461Z,15.53
2022-10-18T03:07:56.942Z,16.34
2022-10-18T03:09:00.871Z,13.53
2022-10-18T03:10:03.353Z,15.85
2022-10-18T03:11:05.755Z,16.23
2022-10-18T03:12:07.840Z,13.75
2022-10-18T03:13:10.237Z,15.31
2022-10-18T03:14:12.630Z,15.07
2022-10-18T03:15:14.783Z,15.07
2022-10-18T03:16:17.611Z,15.21
2022-10-18T03:17:21.466Z,16.67
2022-10-18T03:18:23.399Z,16.11
2022-10-18T03:19:25.391Z,16.71
2022-10-18T03:20:27.782Z,16.81
2022-10-18T03:21:29.886Z,15.47
2022-10-18T03:22:31.995Z,15.72
2022-10-18T03:23:34.608Z,17.64
2022-10-18T03:24:36.540Z,19.57
2022-10-18T03:25:40.547Z,17.09
2022-10-18T03:26:42.417Z,17.22
2022-10-18T03:27:44.325Z,15.95
2022-10-18T03:28:46.555Z,17.87
2022-10-18T03:29:48.879Z,19.17
2022-10-18T03:30:51.230Z,21.36
2022-10-18T03:31:53.170Z,18.66
2022-10-18T03:32:55.041Z,23.81
2022-10-18T03:33:57.512Z,18.44
2022-10-18T03:34:59.540Z,19.15
2022-10-18T03:36:01.432Z,17.13
2022-10-18T03:37:05.367Z,20.38
2022-10-18T03:38:07.364Z,19.71
2022-10-18T03:39:10.901Z,20.92
2022-10-18T03:40:14.769Z,23.05
2022-10-18T03:41:16.634Z,19.91
2022-10-18T03:42:18.518Z,16.55
2022-10-18T03:43:20.526Z,19.23
2022-10-18T03:44:22.433Z,18.99
2022-10-18T03:45:28.888Z,24.44
2022-10-18T03:46:29.337Z,29.16
2022-10-18T03:47:31.445Z,25.61
2022-10-18T03:48:33.534Z,30.47
2022-10-18T03:49:35.504Z,27.47
2022-10-18T03:50:37.555Z,24.42
2022-10-18T03:51:39.577Z,23.30
2022-10-18T03:52:41.537Z,24.45
2022-10-18T03:53:45.031Z,20.39
2022-10-18T03:54:46.990Z,20.42
2022-10-18T03:55:53.429Z,21.41
2022-10-18T03:56:55.496Z,20.55
2022-10-18T03:57:57.690Z,18.97
2022-10-18T03:58:59.566Z,18.53
2022-10-18T04:00:01.471Z,18.97
2022-10-18T04:01:03.910Z,20.95
2022-10-18T04:02:05.848Z,20.51
2022-10-18T04:03:07.883Z,18.49
2022-10-18T04:04:09.779Z,17.11
2022-10-18T04:05:11.755Z,15.55
2022-10-18T04:06:14.198Z,14.94
2022-10-18T04:07:16.253Z,16.26
2022-10-18T04:08:18.729Z,18.66
2022-10-18T04:09:23.472Z,16.38
2022-10-18T04:10:25.656Z,18.96
2022-10-18T04:11:27.544Z,16.77
2022-10-18T04:12:29.990Z,18.43
2022-10-18T04:13:32.250Z,14.09
2022-10-18T04:14:34.120Z,16.71
2022-10-18T04:15:36.578Z,15.57
2022-10-18T04:16:38.576Z,16.79
2022-10-18T04:17:40.470Z,15.25
2022-10-18T04:18:42.380Z,19.71
2022-10-18T04:19:46.173Z,20.96
2022-10-18T04:20:48.435Z,15.67
2022-10-18T04:21:52.332Z,15.41
2022-10-18T04:22:54.354Z,17.48
2022-10-18T04:23:56.240Z,14.93
2022-10-18T04:24:58.153Z,15.26
2022-10-18T04:26:00.070Z,15.45
2022-10-18T04:27:01.938Z,14.71
2022-10-18T04:28:04.299Z,16.78
2022-10-18T04:29:06.226Z,17.12
2022-10-18T04:30:09.674Z,17.04
2022-10-18T04:31:12.870Z,17.51
2022-10-18T04:32:14.815Z,21.26
2022-10-18T04:33:17.463Z,19.29
2022-10-18T04:34:19.790Z,16.33
2022-10-18T04:35:21.709Z,21.93
2022-10-18T04:36:23.952Z,19.66
2022-10-18T04:37:25.849Z,18.98
2022-10-18T04:38:28.047Z,16.75
2022-10-18T04:39:30.285Z,17.07
2022-10-18T04:40:32.406Z,19.52
2022-10-18T04:41:34.285Z,16.39
2022-10-18T04:42:36.166Z,19.93
2022-10-18T04:43:38.070Z,15.68
2022-10-18T04:44:40.320Z,17.33
2022-10-18T04:45:46.884Z,15.83
2022-10-18T04:46:48.909Z,16.91
2022-10-18T04:47:50.810Z,15.33
2022-10-18T04:48:53.005Z,16.29
2022-10-18T04:49:54.908Z,14.70
2022-10-18T04:50:56.913Z,16.18
2022-10-18T04:52:03.902Z,14.37
2022-10-18T04:53:05.975Z,16.19
2022-10-18T04:54:07.860Z,14.97
2022-10-18T04:55:10.030Z,17.92
2022-10-18T04:56:12.723Z,17.42
2022-10-18T04:57:14.593Z,16.01
2022-10-18T04:58:17.446Z,13.42
2022-10-18T04:59:19.627Z,17.03
2022-10-18T05:00:21.979Z,16.89
2022-10-18T05:01:28.069Z,18.03
2022-10-18T05:02:30.762Z,16.24
2022-10-18T05:03:33.986Z,16.54
2022-10-18T05:04:35.882Z,19.25
2022-10-18T05:06:00.082Z,16.04
2022-10-18T05:06:41.895Z,14.79
2022-10-18T05:07:43.776Z,18.17
2022-10-18T05:08:45.883Z,21.30
2022-10-18T05:09:47.821Z,18.23
2022-10-18T05:10:49.908Z,17.21
2022-10-18T05:11:51.794Z,16.17
2022-10-18T05:12:53.697Z,18.20
2022-10-18T05:13:55.851Z,17.21
2022-10-18T05:14:58.162Z,17.11
2022-10-18T05:16:00.041Z,16.10
2022-10-18T05:17:02.031Z,16.28
2022-10-18T05:18:04.069Z,17.53
2022-10-18T05:19:05.970Z,20.39
2022-10-18T05:20:09.555Z,20.19
2022-10-18T05:21:11.870Z,16.57
2022-10-18T05:22:13.926Z,20.15
2022-10-18T05:23:15.917Z,18.76
2022-10-18T05:24:18.241Z,15.49
2022-10-18T05:25:20.301Z,23.34
2022-10-18T05:26:22.800Z,25.55
2022-10-18T05:27:28.272Z,27.61
2022-10-18T05:28:45.900Z,27.29
2022-10-18T05:29:34.345Z,28.30
2022-10-18T05:30:40.307Z,27.50
2022-10-18T05:31:42.233Z,32.56
2022-10-18T05:32:44.131Z,24.49
2022-10-18T05:33:46.360Z,26.49
2022-10-18T05:34:48.263Z,24.04
2022-10-18T05:35:50.145Z,23.23
2022-10-18T05:36:52.570Z,17.44
2022-10-18T05:37:54.471Z,17.13
2022-10-18T05:38:59.720Z,18.07
2022-10-18T05:40:00.890Z,17.98
2022-10-18T05:41:05.870Z,16.29
2022-10-18T05:42:08.136Z,16.03
2022-10-18T05:43:10.010Z,17.03
2022-10-18T05:44:11.907Z,14.99
2022-10-18T05:45:14.190Z,20.59
2022-10-18T05:46:16.460Z,19.38
2022-10-18T05:47:18.534Z,20.59
2022-10-18T05:48:20.810Z,19.57
2022-10-18T05:49:22.929Z,16.93
2022-10-18T05:50:25.323Z,13.93
2022-10-18T05:51:27.226Z,16.65
2022-10-18T05:52:29.375Z,17.17
2022-10-18T05:53:38.848Z,13.60
2022-10-18T05:54:35.714Z,16.07
2022-10-18T05:55:37.587Z,13.43
2022-10-18T05:56:40.280Z,16.65
2022-10-18T05:57:42.316Z,16.85
2022-10-18T05:58:46.101Z,15.07
2022-10-18T05:59:48.467Z,13.71
2022-10-18T06:00:50.679Z,15.71
2022-10-18T06:01:52.539Z,15.63
2022-10-18T06:02:58.224Z,14.14
2022-10-18T06:09:22.596Z,18.93
2022-10-18T06:10:25.160Z,17.02
2022-10-18T06:11:29.338Z,21.71
2022-10-18T06:12:31.627Z,16.44
2022-10-18T06:13:34.018Z,17.50
2022-10-18T06:14:37.069Z,13.77
2022-10-18T06:15:39.044Z,14.63
2022-10-18T06:16:41.057Z,15.26
2022-10-18T06:17:42.944Z,15.87
2022-10-18T06:18:49.350Z,17.19
2022-10-18T06:19:51.451Z,14.41
2022-10-18T06:20:57.956Z,14.21
2022-10-18T06:22:00.008Z,13.49
2022-10-18T06:23:01.882Z,15.46
2022-10-18T06:24:04.801Z,14.59
2022-10-18T06:25:07.786Z,15.23
2022-10-18T06:26:10.935Z,10.68
2022-10-18T06:27:12.830Z,15.75
2022-10-18T06:28:14.893Z,15.68
2022-10-18T06:29:16.853Z,14.71
2022-10-18T06:30:19.050Z,12.57
2022-10-18T06:31:20.945Z,13.76
2022-10-18T06:32:22.815Z,12.15
2022-10-18T06:33:25.281Z,16.70
2022-10-18T06:34:27.195Z,17.62
2022-10-18T06:35:29.164Z,13.82
2022-10-18T06:36:31.307Z,12.41
2022-10-18T06:37:33.620Z,14.79
2022-10-18T06:38:36.129Z,17.33
2022-10-18T06:39:38.281Z,13.44
2022-10-18T06:40:40.371Z,13.43
2022-10-18T06:41:42.387Z,17.05
2022-10-18T06:42:50.927Z,16.26
2022-10-18T06:43:50.777Z,13.65
2022-10-18T06:44:52.836Z,12.58
2022-10-18T06:45:55.210Z,19.71
2022-10-18T06:46:57.202Z,14.35
2022-10-18T06:47:59.177Z,19.06
2022-10-18T06:49:01.072Z,16.33
2022-10-18T06:50:03.653Z,15.10
2022-10-18T06:51:07.315Z,16.77
2022-10-18T06:52:09.251Z,13.72
2022-10-18T06:53:11.384Z,14.15
2022-10-18T06:54:18.110Z,16.95
2022-10-18T06:55:18.301Z,15.70
2022-10-18T06:56:20.586Z,14.79
2022-10-18T06:57:22.638Z,16.49
2022-10-18T06:58:24.634Z,12.13
2022-10-18T06:59:28.975Z,12.13
2022-10-18T07:00:31.607Z,12.95
2022-10-18T07:01:33.581Z,14.91
2022-10-18T07:02:35.518Z,12.09
2022-10-18T07:03:37.627Z,15.78
2022-10-18T07:04:39.542Z,17.07
2022-10-18T07:05:41.459Z,14.51
2022-10-18T07:06:43.554Z,12.50
2022-10-18T07:07:45.483Z,15.15
2022-10-18T07:08:49.226Z,15.71
2022-10-18T07:09:51.168Z,16.16
2022-10-18T07:10:53.177Z,13.26
2022-10-18T07:11:55.132Z,13.36
2022-10-18T07:13:13.717Z,13.69
2022-10-18T07:14:02.279Z,12.71
2022-10-18T07:15:09.101Z,13.58
2022-10-18T07:16:15.668Z,10.99
2022-10-18T07:17:16.879Z,12.20
2022-10-18T07:18:18.931Z,12.05
2022-10-18T07:19:23.874Z,13.35
2022-10-18T07:20:25.993Z,12.37
2022-10-18T07:21:28.240Z,16.42
2022-10-18T07:22:30.546Z,10.92
2022-10-18T07:23:36.509Z,11.07
2022-10-18T07:24:38.718Z,13.09
2022-10-18T07:25:40.758Z,13.53
2022-10-18T07:26:45.919Z,12.82
2022-10-18T07:27:48.075Z,11.54
2022-10-18T07:28:54.051Z,15.22
2022-10-18T07:29:56.207Z,14.00
2022-10-18T07:31:06.966Z,11.77
2022-10-18T07:32:08.929Z,12.20
2022-10-18T07:33:11.017Z,12.36
2022-10-18T07:34:13.481Z,13.13
2022-10-18T07:35:15.868Z,11.75
2022-10-18T07:36:18.668Z,11.90
2022-10-18T07:37:26.590Z,14.07
2022-10-18T07:38:26.332Z,12.21
2022-10-18T07:39:30.791Z,11.33
2022-10-18T07:40:33.166Z,10.68
2022-10-18T07:41:35.449Z,10.91
2022-10-18T07:42:37.533Z,9.90
2022-10-18T07:43:45.589Z,10.69
2022-10-18T07:44:47.541Z,15.37
2022-10-18T07:45:55.687Z,14.05
2022-10-18T07:46:57.684Z,13.11
2022-10-18T07:47:59.582Z,11.47
2022-10-18T07:49:01.454Z,12.91
2022-10-18T07:51:17.587Z,10.73
2022-10-18T07:52:19.555Z,12.37
2022-10-18T07:53:21.479Z,14.89
2022-10-18T07:54:23.586Z,13.43
2022-10-18T07:55:25.580Z,10.06
2022-10-18T07:56:27.952Z,9.17
2022-10-18T07:57:30.382Z,11.18
2022-10-18T07:58:33.887Z,13.43
2022-10-18T07:59:35.795Z,12.61
2022-10-18T08:00:40.999Z,14.65
2022-10-18T08:01:43.133Z,15.42
2022-10-18T08:02:45.386Z,18.23
2022-10-18T08:03:47.272Z,11.19
2022-10-18T08:04:49.359Z,11.67
2022-10-18T08:05:53.164Z,11.83
2022-10-18T08:06:55.299Z,10.29
2022-10-18T08:07:57.228Z,13.69
2022-10-18T08:08:59.264Z,10.44
2022-10-18T08:10:01.145Z,13.17
2022-10-18T08:12:19.684Z,12.14
2022-10-18T08:13:21.835Z,9.90
2022-10-18T08:14:23.726Z,8.43
2022-10-18T08:15:25.814Z,10.53
2022-10-18T08:16:28.775Z,10.40
2022-10-18T08:17:31.260Z,9.51
2022-10-18T08:18:34.204Z,12.23
2022-10-18T08:19:36.122Z,9.88
2022-10-18T08:20:44.229Z,10.77
2022-10-18T08:21:46.208Z,8.92
2022-10-18T08:22:50.244Z,10.98
2022-10-18T08:23:52.863Z,11.27
2022-10-18T08:24:55.032Z,11.92
2022-10-18T08:26:03.894Z,12.60
2022-10-18T08:27:05.876Z,11.25
2022-10-18T08:28:07.860Z,11.09
2022-10-18T08:29:21.377Z,13.89
2022-10-18T08:30:15.441Z,11.21
2022-10-18T08:31:18.459Z,11.72
2022-10-18T08:32:20.506Z,11.61
2022-10-18T08:33:23.119Z,12.53
2022-10-18T08:34:25.096Z,11.25
2022-10-18T08:35:27.307Z,12.17
2022-10-18T08:36:29.283Z,12.93
2022-10-18T08:37:32.151Z,10.89
2022-10-18T08:38:36.268Z,12.66
2022-10-18T08:39:38.400Z,7.32
2022-10-18T08:40:43.885Z,12.47
2022-10-18T08:43:23.443Z,11.15
2022-10-18T08:44:28.916Z,14.39
2022-10-18T08:45:42.952Z,9.36
2022-10-18T08:46:42.512Z,10.46
2022-10-18T08:47:47.874Z,8.28
2022-10-18T08:48:53.580Z,9.58
2022-10-18T08:50:02.291Z,11.56
2022-10-18T08:51:08.007Z,9.78
2022-10-18T08:52:25.500Z,9.03
2022-10-18T08:53:31.825Z,8.70
2022-10-18T08:54:38.754Z,9.98
2022-10-18T08:55:53.788Z,8.50
2022-10-18T08:57:02.114Z,9.14
2022-10-18T08:58:10.339Z,10.06
2022-10-18T08:59:13.220Z,9.23
2022-10-18T09:00:21.269Z,9.88
2022-10-18T09:01:42.346Z,8.66
2022-10-18T09:04:19.531Z,8.26
2022-10-18T09:05:31.247Z,7.48
2022-10-18T09:07:07.560Z,8.57
2022-10-18T09:08:16.395Z,10.68
2022-10-18T09:09:45.173Z,6.09
2022-10-18T09:11:03.428Z,7.68
2022-10-18T09:12:25.912Z,10.54
2022-10-18T09:13:48.478Z,8.56
2022-10-18T09:14:54.174Z,9.54
2022-10-18T09:16:11.876Z,7.85
2022-10-18T09:17:23.290Z,6.83
2022-10-18T09:18:38.103Z,7.95
2022-10-18T09:20:04.999Z,8.28
2022-10-18T09:21:22.454Z,10.56
2022-10-18T09:22:34.328Z,10.49
2022-10-18T09:23:57.089Z,10.95
2022-10-18T09:25:08.882Z,9.54
2022-10-18T09:26:21.461Z,12.44
2022-10-18T09:27:27.187Z,12.36
2022-10-18T09:28:49.834Z,8.21
2022-10-18T09:29:55.713Z,12.42
2022-10-18T09:31:13.724Z,8.34
2022-10-18T09:32:44.892Z,7.00
2022-10-18T09:34:02.518Z,7.92
2022-10-18T09:35:23.105Z,7.10
2022-10-18T09:36:28.928Z,8.42
2022-10-18T09:37:33.928Z,13.39
2022-10-18T09:38:45.846Z,11.56
2022-10-18T09:39:49.980Z,8.54
2022-10-18T09:40:55.911Z,8.59
2022-10-18T09:43:15.283Z,11.04
2022-10-18T09:44:37.957Z,10.77
2022-10-18T09:45:43.093Z,9.59
2022-10-18T09:46:51.732Z,10.74
2022-10-18T09:48:03.250Z,12.13
2022-10-18T09:49:29.049Z,6.24
2022-10-18T09:50:46.514Z,17.16
2022-10-18T09:51:50.338Z,9.36
2022-10-18T09:53:18.422Z,8.49
2022-10-18T09:54:36.297Z,7.57
2022-10-18T09:55:42.091Z,10.31
2022-10-18T09:56:48.040Z,7.47
2022-10-18T09:57:53.804Z,10.59
2022-10-18T09:58:55.840Z,9.99
2022-10-18T10:00:00.800Z,6.72
2022-10-18T10:01:03.499Z,7.67
2022-10-18T10:02:06.513Z,8.03
2022-10-18T10:03:12.089Z,8.44
2022-10-18T10:04:14.019Z,10.59
2022-10-18T10:05:15.952Z,9.11
2022-10-18T10:06:30.076Z,7.56
2022-10-18T10:07:39.148Z,7.01
2022-10-18T10:08:45.177Z,8.76
2022-10-18T10:09:50.589Z,9.01
2022-10-18T10:10:53.630Z,12.16
2022-10-18T10:11:56.814Z,5.92
2022-10-18T10:13:17.242Z,7.87
2022-10-18T10:14:28.079Z,12.01
2022-10-18T10:15:35.299Z,6.87
2022-10-18T10:16:37.980Z,6.76
2022-10-18T10:17:42.762Z,7.01
2022-10-18T10:18:48.447Z,5.19
2022-10-18T10:20:16.971Z,8.35
2022-10-18T10:21:21.749Z,9.80
2022-10-18T10:22:33.656Z,6.18
2022-10-18T10:23:39.576Z,5.41
2022-10-18T10:24:53.701Z,7.78
2022-10-18T10:25:59.417Z,8.56
2022-10-18T10:27:05.269Z,8.84
2022-10-18T10:28:19.747Z,6.50
2022-10-18T10:29:48.801Z,6.33
2022-10-18T10:30:51.237Z,8.57
2022-10-18T10:32:03.742Z,8.83
2022-10-18T10:33:08.586Z,9.04
2022-10-18T10:34:17.096Z,8.70
2022-10-18T10:35:33.985Z,6.88
2022-10-18T10:36:27.409Z,8.82
2022-10-18T10:37:36.326Z,6.26
2022-10-18T10:38:38.457Z,7.11
2022-10-18T10:39:42.867Z,11.09
2022-10-18T10:40:49.501Z,10.21
2022-10-18T10:41:54.549Z,7.81
2022-10-18T10:43:36.418Z,13.91
2022-10-18T10:44:30.327Z,8.91
2022-10-18T10:46:38.188Z,11.05
2022-10-18T10:47:40.415Z,10.12
2022-10-18T10:48:49.288Z,9.31
2022-10-18T10:49:51.495Z,7.88
2022-10-18T10:50:57.567Z,5.63
2022-10-18T10:52:09.035Z,9.80
2022-10-18T10:53:09.892Z,8.61
2022-10-18T10:54:17.251Z,7.41
2022-10-18T10:55:35.025Z,9.39
2022-10-18T10:57:51.697Z,7.08
2022-10-18T10:58:57.158Z,8.92
2022-10-18T10:59:59.456Z,6.95
2022-10-18T11:01:17.267Z,8.21
2022-10-18T11:02:32.267Z,7.56
2022-10-18T11:03:34.791Z,9.35
2022-10-18T11:04:36.857Z,9.01
2022-10-18T11:05:45.218Z,8.01
2022-10-18T11:06:57.064Z,9.51
2022-10-18T11:08:02.302Z,6.08
2022-10-18T11:09:07.682Z,6.62
2022-10-18T11:10:13.654Z,7.61
2022-10-18T11:11:23.301Z,9.32
2022-10-18T11:12:41.509Z,7.46
2022-10-18T11:13:56.952Z,7.38
2022-10-18T11:15:00.912Z,6.21
2022-10-18T11:16:15.518Z,6.89
2022-10-18T11:17:21.411Z,4.78
2022-10-18T11:18:36.157Z,8.92
2022-10-18T11:19:41.924Z,6.51
2022-10-18T11:20:50.678Z,7.22
2022-10-18T11:21:53.589Z,6.23
2022-10-18T11:23:01.839Z,8.37
2022-10-18T11:24:07.731Z,16.64
2022-10-18T11:25:12.904Z,7.61
2022-10-18T11:26:18.805Z,10.79
2022-10-18T11:29:17.724Z,7.10
2022-10-18T11:30:46.240Z,11.47
2022-10-18T11:32:25.827Z,12.82
2022-10-18T11:34:07.543Z,7.69
2022-10-18T11:35:27.863Z,8.14
2022-10-18T11:36:46.197Z,8.13
2022-10-18T11:37:54.329Z,17.64
2022-10-18T11:39:15.216Z,8.32
2022-10-18T11:40:37.861Z,6.26
2022-10-18T11:41:49.736Z,7.42
2022-10-18T11:44:51.538Z,7.42
2022-10-18T11:46:06.280Z,11.63
2022-10-18T11:47:21.027Z,5.92
2022-10-18T11:48:43.283Z,9.63
2022-10-18T11:49:55.118Z,6.07
2022-10-18T11:51:23.754Z,10.71
2022-10-18T11:54:19.128Z,6.34
2022-10-18T11:55:49.483Z,7.19
2022-10-18T11:57:12.116Z,6.37
2022-10-18T11:58:43.905Z,12.45
2022-10-18T11:59:58.089Z,7.08
2022-10-18T12:01:06.876Z,6.64
2022-10-18T12:03:56.044Z,6.31
2022-10-18T12:06:18.296Z,9.22
2022-10-18T12:07:27.754Z,11.97
2022-10-18T12:08:42.716Z,5.81
2022-10-18T12:11:09.461Z,8.44
2022-10-18T12:12:02.570Z,7.76
2022-10-18T12:13:07.505Z,8.16
2022-10-18T12:14:28.517Z,6.03
2022-10-18T12:15:34.274Z,6.44
2022-10-18T12:16:51.030Z,6.71
2022-10-18T12:17:57.398Z,8.34
2022-10-18T12:19:03.298Z,6.06
2022-10-18T12:20:31.113Z,4.52
2022-10-18T12:21:33.945Z,8.50
2022-10-18T12:22:48.755Z,8.86
2022-10-18T12:23:54.398Z,5.61
2022-10-18T12:24:56.317Z,6.73
2022-10-18T12:26:04.576Z,6.07
2022-10-18T12:27:10.269Z,6.66
2022-10-18T12:28:28.509Z,9.36
2022-10-18T12:29:52.833Z,9.48
2022-10-18T12:30:58.703Z,5.69
2022-10-18T12:32:04.437Z,7.93
2022-10-18T12:33:27.228Z,9.09
2022-10-18T12:34:23.786Z,7.69
2022-10-18T12:35:29.218Z,12.74
2022-10-18T12:36:44.178Z,7.93
2022-10-18T12:38:08.300Z,5.14
2022-10-18T12:39:14.054Z,5.81
2022-10-18T12:42:37.748Z,7.41
2022-10-18T12:43:39.859Z,8.18
2022-10-18T12:44:41.887Z,6.17
2022-10-18T12:45:53.342Z,5.44
2022-10-18T12:46:58.671Z,9.02
2022-10-18T12:48:03.858Z,8.57
2022-10-18T12:49:07.774Z,10.57
2022-10-18T12:52:00.864Z,9.58
2022-10-18T12:53:18.634Z,6.71
2022-10-18T12:55:45.866Z,9.96
2022-10-18T12:56:47.991Z,5.90
2022-10-18T12:57:59.226Z,8.11
2022-10-18T12:59:17.309Z,12.22
2022-10-18T13:00:32.786Z,8.52
2022-10-18T13:01:57.126Z,16.48
2022-10-18T13:03:15.145Z,7.24
2022-10-18T13:04:29.369Z,6.58
2022-10-18T13:05:53.523Z,9.53
2022-10-18T13:07:09.416Z,5.81
2022-10-18T13:09:33.610Z,7.33
2022-10-18T13:10:35.810Z,6.31
2022-10-18T13:11:37.701Z,6.26
2022-10-18T13:13:12.153Z,14.57
2022-10-18T13:14:18.223Z,7.16
2022-10-18T13:15:35.930Z,6.19
2022-10-18T13:16:44.448Z,6.93
2022-10-18T13:17:52.918Z,6.94
2022-10-18T13:19:18.564Z,7.64
2022-10-18T13:20:42.439Z,7.17
2022-10-18T13:22:06.686Z,11.66
2022-10-18T13:23:34.018Z,10.89
2022-10-18T13:24:46.252Z,8.56
2022-10-18T13:25:55.052Z,8.68
2022-10-18T13:27:36.720Z,5.93
2022-10-18T13:28:29.138Z,7.18
2022-10-18T13:29:43.474Z,7.85
2022-10-18T13:31:04.501Z,9.09
2022-10-18T13:33:39.094Z,8.72
2022-10-18T13:34:42.410Z,9.89
2022-10-18T13:35:59.895Z,8.53
2022-10-18T13:37:11.771Z,11.74
2022-10-18T13:38:42.139Z,8.48
2022-10-18T13:39:44.498Z,9.45
2022-10-18T13:41:01.417Z,10.55
2022-10-18T13:42:16.228Z,7.34
2022-10-18T13:43:54.304Z,8.38
2022-10-18T13:45:16.753Z,7.77
2022-10-18T13:46:24.444Z,8.55
2022-10-18T13:47:37.321Z,8.92
2022-10-18T13:48:52.860Z,8.08
2022-10-18T13:51:39.054Z,6.34
2022-10-18T13:52:55.787Z,6.07
2022-10-18T13:54:10.472Z,10.34
2022-10-18T13:55:53.450Z,11.91
2022-10-18T13:57:26.637Z,9.77
2022-10-18T13:58:35.806Z,9.16
2022-10-18T13:59:44.423Z,10.34
2022-10-18T14:01:09.576Z,11.57
2022-10-18T14:02:49.481Z,8.31
2022-10-18T14:03:58.683Z,7.86
2022-10-18T14:05:25.045Z,9.60
2022-10-18T14:06:28.683Z,12.69
2022-10-18T14:07:32.629Z,11.11
2022-10-18T14:08:38.447Z,9.74
2022-10-18T14:09:54.890Z,9.05
2022-10-18T14:11:12.011Z,6.34
2022-10-18T14:12:40.495Z,5.48
2022-10-18T14:13:49.226Z,6.88
2022-10-18T14:15:00.935Z,8.61
2022-10-18T14:16:08.683Z,8.00
2022-10-18T14:17:18.123Z,5.67
2022-10-18T14:18:23.918Z,5.89
2022-10-18T14:19:47.975Z,6.19
2022-10-18T14:21:12.444Z,7.17
2022-10-18T14:22:07.214Z,9.05
2022-10-18T14:24:23.011Z,8.75
2022-10-18T14:25:31.594Z,8.41
2022-10-18T14:26:35.467Z,8.50
2022-10-18T14:27:37.588Z,7.99
2022-10-18T14:28:58.752Z,11.37
2022-10-18T14:29:44.675Z,6.78
2022-10-18T14:31:04.999Z,7.37
2022-10-18T14:32:10.667Z,8.23
2022-10-18T14:33:28.395Z,7.69
2022-10-18T14:34:30.551Z,5.63
2022-10-18T14:35:39.640Z,10.59
2022-10-18T14:36:40.132Z,9.55
2022-10-18T14:37:42.458Z,8.91
2022-10-18T14:38:56.972Z,8.28
2022-10-18T14:39:58.889Z,6.77
2022-10-18T14:41:15.593Z,5.12
2022-10-18T14:42:21.331Z,8.96
2022-10-18T14:43:23.324Z,6.24
2022-10-18T14:44:30.649Z,5.70
2022-10-18T14:45:32.933Z,7.57
2022-10-18T14:46:38.835Z,7.61
2022-10-18T14:47:40.760Z,8.47
2022-10-18T14:48:57.802Z,12.65
2022-10-18T14:49:59.719Z,5.78
2022-10-18T14:51:04.948Z,8.77
2022-10-18T14:52:20.398Z,10.92
2022-10-18T14:53:22.919Z,10.14
2022-10-18T14:55:42.074Z,8.61
2022-10-18T14:56:45.270Z,5.53
2022-10-18T14:57:47.266Z,6.92
2022-10-18T14:58:49.847Z,4.76
2022-10-18T14:59:54.655Z,6.42
2022-10-18T15:00:58.518Z,5.27
2022-10-18T15:02:03.224Z,8.09
2022-10-18T15:03:07.469Z,6.56
2022-10-18T15:04:12.187Z,6.84
2022-10-18T15:05:17.928Z,8.35
2022-10-18T15:06:20.636Z,6.33
2022-10-18T15:07:23.578Z,7.51
2022-10-18T15:08:37.681Z,7.46
2022-10-18T15:09:40.227Z,6.47
2022-10-18T15:10:42.338Z,7.95